Time;durP1;ratioP1;P1;durP2;ratioP2;P2;SDS_P1;SDS_P2;PMS_P1;PMS_P2;Temp;Humidity;BMP_temperature;BMP_pressure;BME280_temperature;BME280_humidity;BME280_pressure;Samples;Min_cycle;Max_cycle;Signal;HPM_P1;HPM_P2
2022/02/17 00:00:25;;;;;;;36.57;8.60;;;10.30;99.90;;;;;;6235603;23;20261;-76
2022/02/17 00:02:53;;;;;;;43.63;7.73;;;10.30;99.90;;;;;;6235888;23;20511;-79
2022/02/17 00:05:21;;;;;;;37.47;8.87;;;10.20;99.90;;;;;;6234502;23;20437;-78
2022/02/17 00:07:49;;;;;;;40.10;9.37;;;10.20;99.90;;;;;;6236063;23;20205;-79
2022/02/17 00:10:16;;;;;;;35.57;8.40;;;10.10;99.90;;;;;;6235176;23;20185;-80
2022/02/17 00:12:43;;;;;;;35.70;9.67;;;10.20;99.90;;;;;;6234760;23;20177;-79
2022/02/17 00:15:12;;;;;;;35.23;10.40;;;10.20;99.90;;;;;;6235796;23;20523;-78
2022/02/17 00:17:39;;;;;;;35.30;8.97;;;10.20;99.90;;;;;;6235876;23;20181;-78
2022/02/17 00:20:08;;;;;;;37.20;9.17;;;10.30;99.90;;;;;;6234767;23;20177;-78
2022/02/17 00:22:35;;;;;;;41.30;8.83;;;10.30;99.90;;;;;;6235370;23;20224;-79
2022/02/17 00:25:02;;;;;;;39.47;8.90;;;10.40;99.90;;;;;;6235168;23;20181;-79
2022/02/17 00:27:29;;;;;;;50.03;11.20;;;10.40;99.90;;;;;;6235124;23;20177;-78
2022/02/17 00:29:55;;;;;;;37.93;8.27;;;10.40;99.90;;;;;;6235242;23;20174;-81
2022/02/17 00:32:24;;;;;;;34.43;8.13;;;10.30;99.90;;;;;;6234227;23;20577;-78
2022/02/17 00:34:51;;;;;;;28.27;7.43;;;10.30;99.90;;;;;;6235322;23;20173;-78
2022/02/17 00:37:18;;;;;;;39.73;8.23;;;10.20;99.90;;;;;;6235464;23;20201;-80
2022/02/17 00:39:44;;;;;;;28.30;7.43;;;10.20;99.90;;;;;;6233606;23;20566;-79
2022/02/17 00:42:11;;;;;;;39.43;7.93;;;10.20;99.90;;;;;;6234648;23;20200;-79
2022/02/17 00:44:38;;;;;;;35.20;7.77;;;10.10;99.90;;;;;;6236085;23;20181;-79
2022/02/17 00:47:06;;;;;;;35.40;7.00;;;10.20;99.90;;;;;;6234589;23;20181;-78
2022/02/17 00:49:34;;;;;;;31.73;6.30;;;10.20;99.90;;;;;;6234804;23;20478;-80
2022/02/17 00:52:01;;;;;;;36.13;6.33;;;10.20;99.90;;;;;;6234720;23;20184;-79
2022/02/17 00:54:28;;;;;;;30.93;6.87;;;10.20;99.90;;;;;;6234439;23;20752;-78
2022/02/17 00:56:54;;;;;;;29.80;6.10;;;10.20;99.90;;;;;;6234537;23;20172;-79
2022/02/17 00:59:22;;;;;;;28.10;6.77;;;10.20;99.90;;;;;;6234557;23;20193;-78
2022/02/17 01:01:48;;;;;;;21.60;6.27;;;10.30;99.90;;;;;;6232916;23;20177;-77
2022/02/17 01:04:16;;;;;;;22.53;4.80;;;10.30;99.90;;;;;;6235356;23;20619;-77
2022/02/17 01:06:44;;;;;;;21.17;5.33;;;10.40;99.90;;;;;;6235098;23;20506;-78
2022/02/17 01:09:13;;;;;;;18.17;5.03;;;10.50;99.90;;;;;;6234008;23;20178;-79
2022/02/17 01:11:40;;;;;;;34.13;6.33;;;10.50;99.90;;;;;;6234407;23;20175;-76
2022/02/17 01:14:09;;;;;;;28.83;6.77;;;10.60;99.90;;;;;;6233775;23;20879;-78
2022/02/17 01:16:37;;;;;;;38.97;9.23;;;10.70;99.90;;;;;;6233666;23;20173;-79
2022/02/17 01:19:04;;;;;;;29.97;6.83;;;10.60;99.90;;;;;;6234568;23;20169;-81
2022/02/17 01:21:31;;;;;;;32.33;7.23;;;10.50;99.90;;;;;;6234959;23;20183;-78
2022/02/17 01:23:59;;;;;;;30.30;6.73;;;10.50;99.90;;;;;;6234184;23;20204;-79
2022/02/17 01:26:26;;;;;;;34.50;7.57;;;10.50;99.90;;;;;;6235976;23;20178;-77
2022/02/17 01:28:53;;;;;;;31.47;7.30;;;10.50;99.90;;;;;;6234222;23;20169;-77
2022/02/17 01:31:20;;;;;;;34.80;7.53;;;10.50;99.90;;;;;;6233962;23;20169;-79
2022/02/17 01:33:46;;;;;;;40.40;8.87;;;10.50;99.90;;;;;;6234606;23;20731;-77
2022/02/17 01:36:14;;;;;;;38.17;8.23;;;10.40;99.90;;;;;;6233238;23;20180;-78
2022/02/17 01:38:44;;;;;;;39.30;7.77;;;10.40;99.90;;;;;;6234684;23;20183;-77
2022/02/17 01:41:13;;;;;;;37.43;10.20;;;10.20;99.90;;;;;;6233990;23;20614;-77
2022/02/17 01:43:40;;;;;;;37.87;8.50;;;10.20;99.90;;;;;;6234252;23;20197;-77
2022/02/17 01:46:07;;;;;;;37.17;7.77;;;10.10;99.90;;;;;;6234121;23;20184;-78
2022/02/17 01:48:34;;;;;;;45.47;8.83;;;10.00;99.90;;;;;;6234624;23;20209;-79
2022/02/17 01:51:01;;;;;;;31.67;7.90;;;10.00;99.90;;;;;;6233492;23;20701;-77
2022/02/17 01:53:30;;;;;;;33.07;7.03;;;10.10;99.90;;;;;;6234337;23;20572;-76
2022/02/17 01:55:58;;;;;;;31.77;7.20;;;10.10;99.90;;;;;;6234453;23;20184;-77
2022/02/17 01:58:27;;;;;;;26.83;6.87;;;10.10;99.90;;;;;;6234111;23;20169;-79
2022/02/17 02:00:54;;;;;;;31.30;7.57;;;10.20;99.90;;;;;;6234730;23;20194;-78
2022/02/17 02:03:23;;;;;;;22.93;6.10;;;10.20;99.90;;;;;;6234317;23;20197;-78
2022/02/17 02:05:50;;;;;;;33.57;6.60;;;10.20;99.90;;;;;;6233651;23;20197;-77
2022/02/17 02:08:17;;;;;;;35.13;7.70;;;10.20;99.90;;;;;;6234427;23;20180;-79
2022/02/17 02:10:45;;;;;;;30.43;7.67;;;10.20;99.90;;;;;;6234188;23;20259;-77
2022/02/17 02:13:11;;;;;;;35.87;8.37;;;10.20;99.90;;;;;;6234035;23;20216;-78
2022/02/17 02:15:51;;;;;;;30.33;6.93;;;10.20;99.90;;;;;;6234149;23;20173;-77
2022/02/17 02:18:20;;;;;;;39.97;8.53;;;10.20;99.90;;;;;;6234254;23;20934;-79
2022/02/17 02:20:50;;;;;;;36.97;7.97;;;10.10;99.90;;;;;;6234293;23;20177;-77
2022/02/17 02:23:17;;;;;;;43.27;8.43;;;10.10;99.90;;;;;;6234207;23;20189;-77
2022/02/17 02:25:46;;;;;;;34.00;8.03;;;10.00;99.90;;;;;;6233733;23;20177;-77
2022/02/17 02:28:17;;;;;;;36.30;7.97;;;10.00;99.90;;;;;;6233712;23;20173;-78
2022/02/17 02:30:45;;;;;;;34.47;8.53;;;9.90;99.90;;;;;;6234372;23;20198;-78
2022/02/17 02:33:11;;;;;;;36.70;7.77;;;9.90;99.90;;;;;;6233192;23;20169;-76
2022/02/17 02:35:38;;;;;;;35.50;7.60;;;9.90;99.90;;;;;;6235466;23;20177;-76
2022/02/17 02:38:07;;;;;;;38.37;9.20;;;9.80;99.90;;;;;;6234084;23;20602;-77
2022/02/17 02:40:34;;;;;;;38.03;8.03;;;9.90;99.90;;;;;;6234572;23;20184;-77
2022/02/17 02:43:01;;;;;;;24.30;5.63;;;9.90;99.90;;;;;;6233674;23;20200;-76
2022/02/17 02:45:28;;;;;;;30.83;6.23;;;9.90;99.90;;;;;;6234365;23;20181;-77
2022/02/17 02:47:55;;;;;;;23.17;5.90;;;10.00;99.90;;;;;;6232653;23;20201;-78
2022/02/17 02:50:22;;;;;;;29.33;6.80;;;10.00;99.90;;;;;;6233722;23;20185;-78
2022/02/17 02:52:49;;;;;;;37.67;9.00;;;10.00;99.90;;;;;;6233899;23;20173;-75
2022/02/17 02:55:17;;;;;;;36.60;9.37;;;10.10;99.90;;;;;;6233559;23;20491;-77
2022/02/17 02:57:43;;;;;;;37.93;8.80;;;10.00;99.90;;;;;;6233897;23;20177;-78
2022/02/17 03:00:11;;;;;;;41.77;9.23;;;10.00;99.90;;;;;;6233278;23;20193;-77
2022/02/17 03:02:38;;;;;;;33.23;8.17;;;10.00;99.90;;;;;;6233710;23;20193;-77
2022/02/17 03:05:05;;;;;;;42.20;8.50;;;10.00;99.90;;;;;;6233996;23;20567;-76
2022/02/17 03:07:32;;;;;;;48.00;9.43;;;9.90;99.90;;;;;;6233094;23;20181;-77
2022/02/17 03:09:59;;;;;;;41.87;8.07;;;9.90;99.90;;;;;;6233188;23;20448;-80
2022/02/17 03:12:27;;;;;;;37.73;7.77;;;9.90;99.90;;;;;;6234576;23;20179;-77
2022/02/17 03:14:53;;;;;;;34.07;7.77;;;9.90;99.90;;;;;;6232832;23;20177;-76
2022/02/17 03:17:20;;;;;;;37.40;8.33;;;9.80;99.90;;;;;;6233977;23;20669;-75
2022/02/17 03:19:47;;;;;;;33.33;7.50;;;9.80;99.90;;;;;;6233609;23;20182;-75
2022/02/17 03:22:14;;;;;;;37.43;8.17;;;9.80;99.90;;;;;;6233445;23;20184;-78
2022/02/17 03:24:40;;;;;;;38.67;9.47;;;9.80;99.90;;;;;;6233295;23;20266;-75
2022/02/17 03:27:08;;;;;;;36.57;8.37;;;9.80;99.90;;;;;;6234079;23;20177;-77
2022/02/17 03:29:36;;;;;;;36.33;7.40;;;9.70;99.90;;;;;;6233698;23;20178;-77
2022/02/17 03:32:03;;;;;;;29.60;7.30;;;9.70;99.90;;;;;;6233996;23;20185;-75
2022/02/17 03:34:30;;;;;;;35.87;7.97;;;9.70;99.90;;;;;;6234611;23;20549;-77
2022/02/17 03:36:56;;;;;;;33.60;8.57;;;9.70;99.90;;;;;;6233466;23;20177;-76
2022/02/17 03:39:23;;;;;;;39.37;7.87;;;9.70;99.90;;;;;;6234610;23;20233;-77
2022/02/17 03:41:50;;;;;;;33.77;8.00;;;9.70;99.90;;;;;;6233198;23;20188;-77
2022/02/17 03:44:17;;;;;;;37.13;9.57;;;9.80;99.90;;;;;;6232772;23;20204;-77
2022/02/17 03:46:45;;;;;;;33.20;9.03;;;9.80;99.90;;;;;;6233646;23;20197;-78
2022/02/17 03:49:12;;;;;;;44.57;9.60;;;9.80;99.90;;;;;;6233388;23;20201;-75
2022/02/17 03:51:38;;;;;;;40.23;8.73;;;9.90;99.90;;;;;;6234715;23;20185;-77
2022/02/17 03:54:05;;;;;;;36.17;9.33;;;9.80;99.90;;;;;;6233781;23;20169;-75
2022/02/17 03:56:32;;;;;;;38.47;7.90;;;9.90;99.90;;;;;;6233888;23;20185;-77
2022/02/17 03:59:01;;;;;;;36.67;7.90;;;9.90;99.90;;;;;;6233107;23;20185;-77
2022/02/17 04:01:29;;;;;;;33.03;8.03;;;9.80;99.90;;;;;;6236266;23;20177;-76
2022/02/17 04:03:57;;;;;;;30.10;7.40;;;9.80;99.90;;;;;;6234895;23;20197;-77
2022/02/17 04:06:24;;;;;;;42.17;7.47;;;9.90;99.90;;;;;;6235778;23;20173;-78
2022/02/17 04:08:51;;;;;;;39.63;8.03;;;9.90;99.90;;;;;;6235646;23;20181;-77
2022/02/17 04:11:18;;;;;;;34.37;7.13;;;10.00;99.90;;;;;;6235565;23;20185;-79
2022/02/17 04:13:45;;;;;;;30.60;7.90;;;10.00;99.90;;;;;;6235533;23;20169;-76
2022/02/17 04:16:12;;;;;;;36.30;9.47;;;10.00;99.90;;;;;;6235756;23;20239;-79
2022/02/17 04:18:39;;;;;;;31.90;7.67;;;10.00;99.90;;;;;;6235577;23;20188;-77
2022/02/17 04:21:08;;;;;;;43.70;10.13;;;10.00;99.90;;;;;;6235040;23;20174;-76
2022/02/17 04:23:35;;;;;;;32.97;8.10;;;10.00;99.90;;;;;;6235500;23;20197;-76
2022/02/17 04:26:03;;;;;;;39.60;8.30;;;9.90;99.90;;;;;;6234304;23;20177;-76
2022/02/17 04:28:29;;;;;;;43.00;8.13;;;10.00;99.90;;;;;;6235838;23;20175;-76
2022/02/17 04:30:56;;;;;;;39.83;9.10;;;9.90;99.90;;;;;;6234025;23;20176;-77
2022/02/17 04:33:23;;;;;;;31.80;7.10;;;9.90;99.90;;;;;;6234315;23;20177;-76
2022/02/17 04:35:49;;;;;;;30.00;7.90;;;9.90;99.90;;;;;;6234363;23;20165;-76
2022/02/17 04:38:17;;;;;;;29.10;7.33;;;9.80;99.90;;;;;;6235541;23;20204;-76
2022/02/17 04:43:29;;;;;;;27.90;7.07;;;9.80;99.90;;;;;;6235507;23;20315;-77
2022/02/17 04:45:55;;;;;;;26.37;7.13;;;9.70;99.90;;;;;;6234962;23;20182;-75
2022/02/17 04:48:22;;;;;;;38.23;7.50;;;9.60;99.90;;;;;;6234201;23;20212;-76
2022/02/17 04:50:49;;;;;;;29.53;6.47;;;9.50;99.90;;;;;;6234135;23;20412;-77
2022/02/17 04:53:17;;;;;;;28.20;5.87;;;9.40;99.90;;;;;;6235162;23;20175;-75
2022/02/17 04:55:44;;;;;;;21.53;6.10;;;9.40;99.90;;;;;;6235832;23;20216;-77
2022/02/17 04:58:12;;;;;;;23.83;6.00;;;9.30;99.90;;;;;;6235331;23;20582;-76
2022/02/17 05:00:39;;;;;;;26.53;6.57;;;9.20;99.90;;;;;;6234579;23;20193;-77
2022/02/17 05:03:06;;;;;;;28.77;5.70;;;9.20;99.90;;;;;;6235253;23;20180;-78
2022/02/17 05:05:33;;;;;;;29.30;5.90;;;9.10;99.90;;;;;;6235659;23;20180;-75
2022/02/17 05:07:59;;;;;;;26.63;5.93;;;9.10;99.90;;;;;;6234003;23;20518;-76
2022/02/17 05:10:28;;;;;;;24.10;5.47;;;9.10;99.90;;;;;;6235914;23;20185;-76
2022/02/17 05:12:54;;;;;;;35.27;7.47;;;9.10;99.90;;;;;;6235106;23;20173;-79
2022/02/17 05:15:21;;;;;;;34.67;6.90;;;9.00;99.90;;;;;;6234209;23;20264;-76
2022/02/17 05:17:48;;;;;;;26.83;6.37;;;9.00;99.90;;;;;;6234441;23;20588;-77
2022/02/17 05:20:15;;;;;;;29.50;6.90;;;9.10;99.90;;;;;;6234754;23;20185;-77
2022/02/17 05:22:43;;;;;;;27.53;5.60;;;9.10;99.90;;;;;;6234555;23;20177;-76
2022/02/17 05:25:11;;;;;;;21.10;5.60;;;9.10;99.90;;;;;;6234238;23;20201;-77
2022/02/17 05:27:41;;;;;;;20.77;5.43;;;9.10;99.90;;;;;;6235343;23;20196;-76
2022/02/17 05:30:08;;;;;;;19.93;5.23;;;9.00;99.90;;;;;;6234816;23;20182;-73
2022/02/17 05:32:39;;;;;;;24.47;5.00;;;9.00;99.90;;;;;;6235833;23;20178;-78
2022/02/17 05:35:07;;;;;;;25.20;4.57;;;9.00;99.90;;;;;;6234062;23;20165;-78
2022/02/17 05:37:34;;;;;;;24.63;5.50;;;9.00;99.90;;;;;;6234930;23;20173;-77
2022/02/17 05:40:01;;;;;;;22.73;6.53;;;8.90;99.90;;;;;;6234203;23;20178;-75
2022/02/17 05:42:28;;;;;;;21.00;5.43;;;9.00;99.90;;;;;;6234120;23;20177;-79
2022/02/17 05:44:56;;;;;;;22.23;4.87;;;9.00;99.90;;;;;;6234488;23;20192;-75
2022/02/17 05:47:23;;;;;;;25.83;5.63;;;9.00;99.90;;;;;;6233589;23;20205;-77
2022/02/17 05:49:49;;;;;;;29.07;5.83;;;9.00;99.90;;;;;;6233606;23;20546;-77
2022/02/17 05:52:17;;;;;;;24.63;5.30;;;9.00;99.90;;;;;;6234259;23;20177;-77
2022/02/17 05:54:43;;;;;;;21.40;5.00;;;9.00;99.90;;;;;;6234504;23;20742;-76
2022/02/17 05:57:10;;;;;;;26.67;5.17;;;9.00;99.90;;;;;;6233178;23;20176;-76
2022/02/17 05:59:38;;;;;;;23.07;5.07;;;9.00;99.90;;;;;;6234483;23;20193;-77
2022/02/17 06:02:07;;;;;;;18.33;5.23;;;9.00;99.90;;;;;;6233216;23;20187;-76
2022/02/17 06:04:33;;;;;;;24.07;6.10;;;9.00;99.90;;;;;;6233685;23;20205;-76
2022/02/17 06:07:00;;;;;;;28.43;4.80;;;9.00;99.90;;;;;;6233256;23;20173;-76
2022/02/17 06:09:27;;;;;;;20.13;5.77;;;9.00;99.90;;;;;;6234358;23;20644;-74
2022/02/17 06:11:54;;;;;;;23.20;5.57;;;9.10;99.90;;;;;;6234156;23;20184;-77
2022/02/17 06:14:20;;;;;;;24.83;5.60;;;9.10;99.90;;;;;;6234284;23;20280;-79
2022/02/17 06:16:47;;;;;;;17.33;4.50;;;9.10;99.90;;;;;;6234231;23;20204;-76
2022/02/17 06:19:15;;;;;;;21.83;4.50;;;9.10;99.90;;;;;;6234027;23;20174;-76
2022/02/17 06:21:42;;;;;;;23.87;4.93;;;9.10;99.90;;;;;;6233421;23;20185;-75
2022/02/17 06:24:09;;;;;;;17.17;4.27;;;9.10;99.90;;;;;;6232415;23;20201;-77
2022/02/17 06:26:35;;;;;;;18.70;4.67;;;9.10;99.90;;;;;;6234781;23;20194;-77
2022/02/17 06:29:02;;;;;;;24.33;5.33;;;9.10;99.90;;;;;;6233510;23;20166;-76
2022/02/17 06:31:29;;;;;;;18.20;4.53;;;9.10;99.90;;;;;;6233856;23;20185;-76
2022/02/17 06:33:56;;;;;;;31.90;5.50;;;9.10;99.90;;;;;;6234159;23;20252;-76
2022/02/17 06:36:24;;;;;;;30.20;5.27;;;9.00;99.90;;;;;;6234244;23;20197;-76
2022/02/17 06:38:51;;;;;;;24.57;5.87;;;9.00;99.90;;;;;;6233487;23;20173;-78
2022/02/17 06:41:21;;;;;;;22.43;4.90;;;9.00;99.90;;;;;;6230527;23;20174;-76
2022/02/17 06:43:48;;;;;;;22.47;4.30;;;9.00;99.90;;;;;;6234060;23;20186;-77
2022/02/17 06:46:15;;;;;;;21.93;4.33;;;9.00;99.90;;;;;;6232904;23;20652;-77
2022/02/17 06:48:41;;;;;;;23.07;6.07;;;9.00;99.90;;;;;;6233527;23;20609;-77
2022/02/17 06:51:08;;;;;;;17.87;3.93;;;9.00;99.90;;;;;;6233009;23;20551;-76
2022/02/17 06:53:36;;;;;;;18.87;4.57;;;9.00;99.90;;;;;;6233792;23;20846;-75
2022/02/17 06:56:03;;;;;;;19.73;5.27;;;9.00;99.90;;;;;;6232987;23;20177;-75
2022/02/17 06:58:31;;;;;;;28.37;5.33;;;9.00;99.90;;;;;;6234197;23;20177;-76
2022/02/17 07:00:58;;;;;;;27.13;5.23;;;8.90;99.90;;;;;;6232299;23;20193;-76
2022/02/17 07:03:25;;;;;;;28.77;5.27;;;8.90;99.90;;;;;;6233155;23;20200;-77
2022/02/17 07:05:52;;;;;;;28.07;4.60;;;8.90;99.90;;;;;;6233686;23;20697;-76
2022/02/17 07:08:18;;;;;;;25.50;6.47;;;8.90;99.90;;;;;;6232150;23;20632;-76
2022/02/17 07:10:55;;;;;;;19.17;4.53;;;8.90;99.90;;;;;;6233182;23;20174;-77
2022/02/17 07:13:23;;;;;;;21.37;4.23;;;8.80;99.90;;;;;;6233148;23;20169;-76
2022/02/17 07:15:50;;;;;;;14.33;4.20;;;8.80;99.90;;;;;;6232909;23;20173;-75
2022/02/17 07:18:19;;;;;;;24.47;5.27;;;8.80;99.90;;;;;;6232310;23;20166;-76
2022/02/17 07:20:47;;;;;;;20.73;4.23;;;8.80;99.90;;;;;;6232727;23;20927;-77
2022/02/17 07:23:15;;;;;;;20.00;4.60;;;8.80;99.90;;;;;;6233149;23;20174;-76
2022/02/17 07:25:42;;;;;;;21.10;4.40;;;8.80;99.90;;;;;;6232590;23;20304;-76
2022/02/17 07:28:10;;;;;;;22.37;5.40;;;8.70;99.90;;;;;;6232089;23;20233;-75
2022/02/17 07:30:38;;;;;;;22.30;5.00;;;8.80;99.90;;;;;;6233746;23;20181;-76
2022/02/17 07:33:05;;;;;;;22.03;4.30;;;8.80;99.90;;;;;;6232242;23;20173;-77
2022/02/17 07:35:33;;;;;;;34.10;6.03;;;8.80;99.90;;;;;;6234162;23;20411;-76
2022/02/17 07:38:00;;;;;;;20.37;4.63;;;8.80;99.90;;;;;;6234809;23;20177;-75
2022/02/17 07:40:28;;;;;;;19.97;3.57;;;8.80;99.90;;;;;;6235864;23;20183;-77
2022/02/17 07:42:55;;;;;;;20.23;5.03;;;8.80;99.90;;;;;;6234463;23;20764;-75
2022/02/17 07:45:23;;;;;;;21.77;5.30;;;8.80;99.90;;;;;;6234985;23;20200;-77
2022/02/17 07:47:52;;;;;;;18.90;5.37;;;8.80;99.90;;;;;;6234188;23;20232;-75
2022/02/17 07:50:23;;;;;;;23.77;4.13;;;8.80;99.90;;;;;;6233977;23;20196;-76
2022/02/17 07:52:50;;;;;;;15.90;3.80;;;8.80;99.90;;;;;;6234637;23;20169;-77
2022/02/17 07:55:18;;;;;;;18.37;4.73;;;8.80;99.90;;;;;;6234140;23;20174;-75
2022/02/17 07:57:45;;;;;;;20.70;4.17;;;8.80;99.90;;;;;;6233148;23;20180;-77
2022/02/17 08:00:13;;;;;;;17.77;5.27;;;8.80;99.90;;;;;;6234383;23;20193;-77
2022/02/17 08:02:42;;;;;;;18.60;4.83;;;8.80;99.90;;;;;;6233359;23;20239;-75
2022/02/17 08:05:10;;;;;;;15.43;4.27;;;8.80;99.90;;;;;;6233865;23;20197;-75
2022/02/17 08:07:38;;;;;;;17.47;3.93;;;8.80;99.90;;;;;;6235771;23;20177;-75
2022/02/17 08:10:06;;;;;;;16.60;4.17;;;8.80;99.90;;;;;;6232254;23;20267;-75
2022/02/17 08:12:33;;;;;;;24.23;3.83;;;8.80;99.90;;;;;;6233458;23;20173;-74
2022/02/17 08:15:01;;;;;;;15.53;4.17;;;8.80;99.90;;;;;;6194142;23;20168;-74
2022/02/17 08:17:28;;;;;;;25.47;4.47;;;8.80;99.90;;;;;;6230928;23;20192;-76
2022/02/17 08:19:56;;;;;;;18.93;4.20;;;8.80;99.90;;;;;;6234634;23;20184;-77
2022/02/17 08:22:23;;;;;;;21.20;4.67;;;8.80;99.90;;;;;;6234567;23;20192;-75
2022/02/17 08:24:49;;;;;;;20.60;6.43;;;8.80;99.90;;;;;;6233633;23;20197;-74
2022/02/17 08:27:16;;;;;;;23.57;5.03;;;8.80;99.90;;;;;;6235067;23;20174;-75
2022/02/17 08:29:43;;;;;;;19.63;4.10;;;8.80;99.90;;;;;;6235155;23;20178;-74
2022/02/17 08:32:10;;;;;;;19.80;4.33;;;8.80;99.90;;;;;;6230676;23;20173;-76
2022/02/17 08:34:37;;;;;;;20.73;4.37;;;8.80;99.90;;;;;;6235029;23;20184;-76
2022/02/17 08:37:06;;;;;;;16.83;4.27;;;8.80;99.90;;;;;;6231766;23;20187;-76
2022/02/17 08:39:33;;;;;;;17.53;3.80;;;8.90;99.90;;;;;;6233715;23;20192;-75
2022/02/17 08:42:00;;;;;;;19.50;4.63;;;8.90;99.90;;;;;;6233758;23;20181;-76
2022/02/17 08:44:26;;;;;;;15.63;4.30;;;8.90;99.90;;;;;;6233722;23;20582;-74
2022/02/17 08:46:53;;;;;;;17.60;3.77;;;8.90;99.90;;;;;;6233658;23;20188;-76
2022/02/17 08:49:20;;;;;;;17.17;4.17;;;8.90;99.90;;;;;;6234117;23;20346;-77
2022/02/17 08:51:47;;;;;;;19.30;4.47;;;8.90;99.90;;;;;;6233831;23;20189;-74
2022/02/17 08:54:15;;;;;;;22.10;5.40;;;8.90;99.90;;;;;;6233402;23;20193;-76
2022/02/17 08:56:41;;;;;;;21.97;5.60;;;8.90;99.90;;;;;;6233732;23;20794;-77
2022/02/17 08:59:08;;;;;;;27.33;4.97;;;8.90;99.90;;;;;;6229534;23;20199;-77
2022/02/17 09:01:38;;;;;;;17.93;4.23;;;8.90;99.90;;;;;;6234092;23;20174;-74
2022/02/17 09:04:05;;;;;;;20.37;5.30;;;9.00;99.90;;;;;;6234695;23;20173;-76
2022/02/17 09:06:32;;;;;;;23.90;4.50;;;9.00;99.90;;;;;;6234864;23;20744;-75
2022/02/17 09:08:59;;;;;;;34.37;6.00;;;9.00;99.90;;;;;;6233746;23;20982;-77
2022/02/17 09:11:27;;;;;;;20.17;5.40;;;9.00;99.90;;;;;;6234589;23;20177;-75
2022/02/17 09:13:54;;;;;;;17.30;4.17;;;9.00;99.90;;;;;;6233972;23;20176;-73
2022/02/17 09:16:21;;;;;;;19.00;5.03;;;9.00;99.90;;;;;;6234429;23;20180;-76
2022/02/17 09:18:47;;;;;;;21.33;4.20;;;9.00;99.90;;;;;;6234812;23;20177;-75
2022/02/17 09:21:15;;;;;;;23.47;5.30;;;9.00;99.90;;;;;;6233272;23;20184;-74
2022/02/17 09:23:41;;;;;;;21.80;4.40;;;9.00;99.90;;;;;;6234982;23;20173;-73
2022/02/17 09:26:08;;;;;;;18.77;4.60;;;9.10;99.90;;;;;;6234286;23;20204;-76
2022/02/17 09:28:38;;;;;;;20.17;4.53;;;9.10;99.90;;;;;;6234307;23;20169;-74
2022/02/17 09:31:05;;;;;;;23.40;4.43;;;9.10;99.90;;;;;;6234195;23;20438;-75
2022/02/17 09:33:32;;;;;;;21.97;4.17;;;9.10;99.90;;;;;;6233905;23;20447;-76
2022/02/17 09:35:59;;;;;;;20.13;3.73;;;9.10;99.90;;;;;;6232815;23;20174;-78
2022/02/17 09:38:26;;;;;;;21.83;4.17;;;9.10;99.90;;;;;;6234091;23;20173;-76
2022/02/17 09:40:53;;;;;;;18.53;4.17;;;9.20;99.90;;;;;;6234049;23;20174;-76
2022/02/17 09:43:24;;;;;;;23.00;5.23;;;9.20;99.90;;;;;;6232943;23;20174;-78
2022/02/17 09:45:53;;;;;;;19.00;4.17;;;9.30;99.90;;;;;;6233993;23;20193;-76
2022/02/17 09:48:19;;;;;;;22.17;4.23;;;9.30;99.90;;;;;;6233348;23;20576;-78
2022/02/17 09:50:47;;;;;;;27.23;6.37;;;9.30;99.90;;;;;;6234223;23;20173;-75
2022/02/17 09:53:14;;;;;;;17.03;3.90;;;9.40;99.90;;;;;;6233661;23;20174;-76
2022/02/17 09:55:42;;;;;;;20.60;4.00;;;9.40;99.90;;;;;;6228273;23;20184;-76
2022/02/17 09:58:09;;;;;;;26.03;4.53;;;9.40;99.90;;;;;;6233335;23;20235;-77
2022/02/17 10:00:37;;;;;;;25.20;6.23;;;9.40;99.90;;;;;;6233378;23;20431;-77
2022/02/17 10:03:21;;;;;;;18.67;4.43;;;9.50;99.90;;;;;;6231828;23;20200;-76
2022/02/17 10:06:05;;;;;;;21.20;4.20;;;9.50;99.90;;;;;;6233084;23;20208;-78
2022/02/17 10:08:33;;;;;;;24.33;5.33;;;9.60;99.90;;;;;;6232603;23;20212;-77
2022/02/17 10:10:59;;;;;;;18.67;3.93;;;9.60;99.90;;;;;;6233009;23;20200;-77
2022/02/17 10:13:26;;;;;;;25.13;7.03;;;9.60;99.90;;;;;;6234029;23;20177;-76
2022/02/17 10:15:54;;;;;;;27.90;6.23;;;9.60;99.90;;;;;;6233736;23;20176;-75
2022/02/17 10:18:26;;;;;;;18.40;4.23;;;9.60;99.90;;;;;;6233220;23;20180;-76
2022/02/17 10:20:59;;;;;;;21.50;4.37;;;9.70;99.90;;;;;;6233758;23;20272;-75
2022/02/17 10:23:27;;;;;;;23.63;5.30;;;9.60;99.90;;;;;;6233752;23;20169;-76
2022/02/17 10:26:03;;;;;;;29.67;6.33;;;9.70;99.90;;;;;;6232939;23;20212;-77
2022/02/17 10:28:30;;;;;;;27.73;5.67;;;9.70;99.90;;;;;;6233378;23;20433;-76
2022/02/17 10:30:58;;;;;;;15.90;4.30;;;9.80;99.90;;;;;;6231965;23;20438;-77
2022/02/17 10:33:37;;;;;;;17.53;4.77;;;9.80;99.90;;;;;;6234064;23;20184;-75
2022/02/17 10:36:04;;;;;;;23.03;4.67;;;9.80;99.90;;;;;;6234071;23;20161;-75
2022/02/17 10:38:31;;;;;;;17.90;4.43;;;9.90;99.90;;;;;;6233883;23;20193;-77
2022/02/17 10:40:58;;;;;;;22.03;5.37;;;9.90;99.90;;;;;;6233142;23;20174;-76
2022/02/17 10:43:29;;;;;;;19.60;4.33;;;10.00;99.90;;;;;;6233544;23;20585;-75
2022/02/17 10:46:03;;;;;;;29.77;5.37;;;10.00;99.90;;;;;;6231913;23;20185;-76
2022/02/17 10:48:32;;;;;;;25.23;5.13;;;10.10;99.90;;;;;;6233142;23;20201;-77
2022/02/17 10:51:10;;;;;;;23.13;4.83;;;10.10;99.90;;;;;;6232322;23;20800;-76
2022/02/17 10:53:40;;;;;;;23.20;4.50;;;10.10;99.90;;;;;;6232784;23;20173;-76
2022/02/17 10:56:08;;;;;;;20.27;4.53;;;10.10;99.90;;;;;;6233909;23;20203;-78
2022/02/17 10:58:38;;;;;;;15.80;4.10;;;10.20;99.90;;;;;;6232339;23;20204;-76
2022/02/17 11:01:07;;;;;;;18.37;5.10;;;10.30;99.90;;;;;;6231630;23;20647;-77
2022/02/17 11:03:37;;;;;;;24.80;5.47;;;10.40;99.90;;;;;;6234225;23;20173;-76
2022/02/17 11:06:05;;;;;;;21.10;4.93;;;10.40;99.90;;;;;;6232997;23;20197;-77
2022/02/17 11:08:32;;;;;;;20.80;4.50;;;10.40;99.90;;;;;;6235256;23;20196;-77
2022/02/17 11:10:59;;;;;;;19.50;4.73;;;10.50;99.90;;;;;;6234879;23;20184;-77
2022/02/17 11:13:27;;;;;;;25.73;4.80;;;10.60;99.90;;;;;;6235696;23;20176;-77
2022/02/17 11:15:58;;;;;;;28.00;5.43;;;10.70;99.90;;;;;;6235709;23;20179;-76
2022/02/17 11:18:25;;;;;;;19.10;5.07;;;10.70;99.90;;;;;;6235893;23;20165;-77
2022/02/17 11:20:54;;;;;;;29.00;5.97;;;10.80;99.90;;;;;;6234816;23;20189;-76
2022/02/17 11:23:28;;;;;;;27.90;4.53;;;10.80;99.90;;;;;;6234860;23;20195;-77
2022/02/17 11:25:55;;;;;;;19.63;4.77;;;10.80;99.90;;;;;;6236025;23;20239;-78
2022/02/17 11:28:34;;;;;;;22.57;5.50;;;10.90;99.90;;;;;;6234421;23;20847;-77
2022/02/17 11:31:03;;;;;;;20.80;4.73;;;10.90;99.90;;;;;;6235013;23;20188;-76
2022/02/17 11:33:32;;;;;;;24.07;5.60;;;11.00;99.90;;;;;;6235174;23;20174;-76
2022/02/17 11:36:32;;;;;;;16.63;4.63;;;10.90;99.90;;;;;;6234846;23;20175;-76
2022/02/17 11:39:06;;;;;;;23.43;5.27;;;10.90;99.90;;;;;;6234832;23;20173;-76
2022/02/17 11:41:35;;;;;;;14.97;3.30;;;10.90;99.90;;;;;;6234761;23;20288;-77
2022/02/17 11:44:21;;;;;;;22.47;4.60;;;10.90;99.90;;;;;;6233774;23;20994;-76
2022/02/17 11:46:56;;;;;;;24.67;4.67;;;10.90;99.90;;;;;;6235249;23;20185;-77
2022/02/17 11:49:51;;;;;;;23.90;5.10;;;10.90;99.90;;;;;;6234071;23;20204;-77
2022/02/17 11:52:23;;;;;;;17.23;5.43;;;11.00;99.90;;;;;;6180927;23;20227;-77
2022/02/17 11:55:24;;;;;;;21.30;4.67;;;10.90;99.90;;;;;;6235122;23;20233;-76
2022/02/17 11:57:52;;;;;;;18.13;5.33;;;10.80;99.90;;;;;;6235083;23;20172;-76
2022/02/17 12:00:34;;;;;;;19.90;4.83;;;10.90;99.90;;;;;;6235115;23;20200;-76
2022/02/17 12:03:02;;;;;;;25.40;4.80;;;10.90;99.90;;;;;;6230764;23;20225;-77
2022/02/17 12:05:29;;;;;;;26.47;5.63;;;10.90;99.90;;;;;;6234789;23;20878;-76
2022/02/17 12:08:22;;;;;;;21.30;4.33;;;10.90;99.90;;;;;;6234586;23;20192;-76
2022/02/17 12:10:49;;;;;;;18.93;4.83;;;11.00;99.90;;;;;;6233910;23;20770;-78
2022/02/17 12:13:26;;;;;;;18.83;5.90;;;11.10;99.90;;;;;;6234289;23;20181;-77
2022/02/17 12:15:53;;;;;;;18.37;5.00;;;11.10;99.90;;;;;;6234154;23;20203;-77
2022/02/17 12:18:20;;;;;;;17.07;4.13;;;11.20;99.90;;;;;;6235048;23;20196;-77
2022/02/17 12:20:47;;;;;;;22.03;4.67;;;11.30;99.90;;;;;;6233735;23;20177;-76
2022/02/17 12:23:18;;;;;;;27.17;6.93;;;11.30;99.90;;;;;;6233348;23;20165;-75
2022/02/17 12:25:47;;;;;;;23.07;4.87;;;11.30;99.90;;;;;;6234982;23;20463;-75
2022/02/17 12:28:15;;;;;;;20.93;5.43;;;11.30;99.90;;;;;;6234242;23;20565;-76
2022/02/17 12:30:44;;;;;;;19.43;3.97;;;11.40;99.90;;;;;;6234117;23;20590;-76
2022/02/17 12:33:16;;;;;;;20.20;4.80;;;11.40;99.90;;;;;;6234584;23;20173;-76
2022/02/17 12:35:46;;;;;;;19.40;4.43;;;11.40;99.90;;;;;;6234228;23;20170;-77
2022/02/17 12:38:14;;;;;;;18.43;3.80;;;11.40;99.90;;;;;;6234393;23;20457;-75
2022/02/17 12:40:43;;;;;;;23.00;5.17;;;11.40;99.90;;;;;;6234988;23;20174;-75
2022/02/17 12:43:11;;;;;;;20.53;4.30;;;11.30;99.90;;;;;;6234869;23;20192;-76
2022/02/17 12:45:42;;;;;;;17.47;4.87;;;11.20;99.90;;;;;;6234018;23;20204;-76
2022/02/17 12:48:10;;;;;;;16.70;3.83;;;11.20;99.90;;;;;;6234344;23;20243;-76
2022/02/17 12:50:41;;;;;;;23.83;4.53;;;11.00;99.90;;;;;;6234960;23;20178;-75